createdAt,value
2023-02-16T00:01:18.946Z,47.20
2023-02-16T00:03:46.852Z,46.78
2023-02-16T00:06:16.225Z,43.95
2023-02-16T00:08:48.183Z,46.57
2023-02-16T00:11:37.128Z,47.88
2023-02-16T00:14:06.607Z,49.45
2023-02-16T00:16:35.748Z,48.85
2023-02-16T00:19:03.486Z,47.35
2023-02-16T00:21:31.413Z,48.37
2023-02-16T00:23:59.064Z,48.55
2023-02-16T00:26:27.251Z,47.95
2023-02-16T00:28:58.422Z,50.47
2023-02-16T00:31:27.910Z,48.95
2023-02-16T00:33:57.126Z,47.53
2023-02-16T00:36:25.189Z,48.70
2023-02-16T00:38:53.021Z,48.05
2023-02-16T00:41:51.863Z,46.42
2023-02-16T00:44:22.535Z,46.47
2023-02-16T00:46:50.254Z,49.10
2023-02-16T00:49:21.217Z,46.15
2023-02-16T00:51:49.309Z,48.97
2023-02-16T00:54:17.043Z,47.85
2023-02-16T00:56:45.431Z,49.72
2023-02-16T00:59:16.117Z,46.25
2023-02-16T01:01:43.986Z,49.33
2023-02-16T01:04:16.171Z,48.90
2023-02-16T01:07:02.895Z,47.45
2023-02-16T01:09:48.552Z,47.83
2023-02-16T01:12:20.407Z,47.47
2023-02-16T01:14:52.371Z,49.70
2023-02-16T01:17:20.178Z,52.00
2023-02-16T01:19:47.883Z,48.53
2023-02-16T01:22:17.114Z,48.27
2023-02-16T01:24:44.782Z,50.97
2023-02-16T01:27:13.560Z,49.55
2023-02-16T01:29:41.185Z,50.50
2023-02-16T01:32:10.626Z,50.40
2023-02-16T01:34:38.643Z,48.75
2023-02-16T01:37:06.292Z,47.33
2023-02-16T01:39:35.351Z,49.47
2023-02-16T01:42:12.820Z,50.22
2023-02-16T01:44:44.676Z,49.70
2023-02-16T01:47:23.454Z,51.33
2023-02-16T01:49:51.162Z,50.53
2023-02-16T01:52:27.285Z,48.38
2023-02-16T01:55:00.735Z,47.90
2023-02-16T01:57:33.828Z,48.95
2023-02-16T02:00:14.491Z,49.55
2023-02-16T02:02:45.133Z,51.67
2023-02-16T02:05:37.967Z,49.20
2023-02-16T02:08:13.944Z,47.73
2023-02-16T02:10:51.569Z,50.97
2023-02-16T02:13:23.080Z,49.30
2023-02-16T02:15:50.893Z,49.70
2023-02-16T02:18:18.568Z,52.03
2023-02-16T02:21:28.003Z,48.13
2023-02-16T02:24:16.199Z,53.20
2023-02-16T02:27:10.466Z,53.20
2023-02-16T02:29:58.846Z,49.97
2023-02-16T02:32:34.724Z,49.35
2023-02-16T02:35:12.654Z,48.97
2023-02-16T02:37:49.264Z,50.28
2023-02-16T02:40:21.521Z,48.60
2023-02-16T02:42:57.368Z,48.03
2023-02-16T02:45:28.318Z,49.17
2023-02-16T02:47:56.022Z,50.83
2023-02-16T02:50:33.628Z,48.45
2023-02-16T02:53:04.931Z,48.03
2023-02-16T02:55:50.826Z,48.10
2023-02-16T02:58:39.036Z,47.70
2023-02-16T03:01:08.386Z,50.60
2023-02-16T03:03:38.555Z,51.90
2023-02-16T03:06:10.500Z,49.00
2023-02-16T03:08:41.385Z,48.72
2023-02-16T03:11:29.607Z,49.70
2023-02-16T03:14:00.994Z,53.05
2023-02-16T03:16:33.464Z,49.67
2023-02-16T03:19:19.212Z,47.47
2023-02-16T03:22:04.934Z,50.78
2023-02-16T03:24:51.168Z,46.88
2023-02-16T03:27:39.868Z,46.40
2023-02-16T03:30:10.527Z,49.70
2023-02-16T03:32:38.298Z,49.00
2023-02-16T03:35:06.373Z,48.88
2023-02-16T03:37:34.183Z,48.95
2023-02-16T03:40:19.014Z,49.53
2023-02-16T03:42:50.910Z,49.33
2023-02-16T03:45:20.455Z,47.70
2023-02-16T03:47:48.231Z,47.63
2023-02-16T03:50:16.467Z,49.17
2023-02-16T03:52:44.221Z,49.92
2023-02-16T03:55:11.904Z,50.30
2023-02-16T03:57:39.644Z,49.55
2023-02-16T04:00:08.352Z,47.10
2023-02-16T04:02:37.388Z,47.80
2023-02-16T04:05:05.165Z,48.53
2023-02-16T04:07:32.855Z,48.53
2023-02-16T04:10:00.558Z,44.63
2023-02-16T04:12:40.161Z,48.53
2023-02-16T04:15:10.070Z,46.40
2023-02-16T04:17:39.242Z,46.53
2023-02-16T04:20:08.374Z,49.45
2023-02-16T04:22:36.136Z,46.67
2023-02-16T04:25:03.851Z,49.67
2023-02-16T04:27:31.604Z,47.88
2023-02-16T04:29:59.277Z,47.97
2023-02-16T04:32:27.015Z,49.03
2023-02-16T04:34:56.079Z,46.42
2023-02-16T04:37:23.842Z,46.03
2023-02-16T04:39:51.510Z,47.00
2023-02-16T04:42:19.274Z,46.50
2023-02-16T04:44:46.998Z,48.57
2023-02-16T04:47:14.906Z,48.33
2023-02-16T04:49:42.588Z,47.47
2023-02-16T04:52:12.564Z,47.28
2023-02-16T04:54:40.232Z,46.57
2023-02-16T04:57:07.963Z,47.22
2023-02-16T04:59:36.017Z,48.85
2023-02-16T05:02:03.828Z,52.17
2023-02-16T05:04:31.545Z,47.28
2023-02-16T05:06:59.324Z,48.10
2023-02-16T05:09:28.439Z,47.05
2023-02-16T05:12:13.825Z,48.00
2023-02-16T05:14:45.094Z,48.43
2023-02-16T05:17:15.208Z,49.55
2023-02-16T05:19:44.028Z,47.97
2023-02-16T05:22:12.188Z,49.35
2023-02-16T05:24:41.580Z,47.28
2023-02-16T05:27:12.148Z,47.75
2023-02-16T05:29:39.968Z,47.33
2023-02-16T05:32:07.701Z,48.38
2023-02-16T05:34:35.583Z,49.78
2023-02-16T05:37:03.194Z,47.95
2023-02-16T05:39:31.074Z,48.40
2023-02-16T05:42:00.182Z,47.72
2023-02-16T05:44:27.974Z,50.88
2023-02-16T05:46:55.652Z,47.38
2023-02-16T05:49:23.310Z,50.90
2023-02-16T05:51:51.124Z,52.00
2023-02-16T05:54:18.936Z,50.03
2023-02-16T05:56:47.730Z,49.22
2023-02-16T05:59:17.412Z,47.95
2023-02-16T06:01:50.498Z,52.03
2023-02-16T06:04:18.884Z,51.13
2023-02-16T06:06:46.809Z,52.65
2023-02-16T06:09:14.550Z,51.15
2023-02-16T06:11:42.327Z,51.08
2023-02-16T06:14:11.582Z,51.28
2023-02-16T06:16:42.655Z,50.37
2023-02-16T06:19:10.641Z,49.42
2023-02-16T06:21:39.516Z,49.15
2023-02-16T06:24:08.718Z,50.60
2023-02-16T06:26:36.430Z,50.22
2023-02-16T06:29:04.188Z,52.53
2023-02-16T06:31:33.923Z,53.03
2023-02-16T06:34:05.436Z,48.33
2023-02-16T06:36:34.034Z,51.13
2023-02-16T06:39:01.784Z,49.88
2023-02-16T06:41:33.599Z,51.47
2023-02-16T06:44:01.989Z,51.00
2023-02-16T06:46:29.808Z,52.15
2023-02-16T06:48:57.547Z,51.05
2023-02-16T06:51:26.834Z,52.50
2023-02-16T06:53:54.571Z,55.67
2023-02-16T06:56:22.594Z,50.20
2023-02-16T06:58:50.450Z,51.10
2023-02-16T07:01:22.810Z,50.07
2023-02-16T07:03:51.554Z,54.03
2023-02-16T07:06:19.754Z,48.43
2023-02-16T07:08:48.800Z,50.28
2023-02-16T07:11:17.122Z,50.90
2023-02-16T07:13:44.974Z,49.17
2023-02-16T07:16:13.352Z,51.08
2023-02-16T07:18:41.272Z,47.15
2023-02-16T07:21:08.961Z,50.38
2023-02-16T07:23:36.662Z,50.37
2023-02-16T07:26:05.989Z,51.97
2023-02-16T07:28:33.874Z,48.63
2023-02-16T07:31:07.689Z,47.20
2023-02-16T07:33:35.585Z,47.58
2023-02-16T07:36:03.501Z,48.33
2023-02-16T07:38:31.645Z,49.30
2023-02-16T07:40:59.744Z,48.72
2023-02-16T07:43:28.930Z,49.85
2023-02-16T07:45:56.811Z,47.33
2023-02-16T07:48:24.532Z,48.97
2023-02-16T07:50:52.206Z,47.13
2023-02-16T07:53:20.031Z,51.28
2023-02-16T07:55:47.710Z,46.85
2023-02-16T07:58:27.137Z,46.95
2023-02-16T08:00:57.425Z,44.83
2023-02-16T08:03:25.432Z,47.20
2023-02-16T08:05:53.224Z,45.20
2023-02-16T08:08:20.881Z,43.05
2023-02-16T08:10:48.689Z,44.90
2023-02-16T08:13:16.363Z,42.93
2023-02-16T08:15:44.830Z,44.38
2023-02-16T08:18:14.111Z,45.07
2023-02-16T08:21:01.455Z,42.33
2023-02-16T08:23:29.521Z,43.60
2023-02-16T08:25:59.082Z,44.30
2023-02-16T08:28:28.729Z,42.47
2023-02-16T08:30:56.848Z,45.17
2023-02-16T08:33:26.113Z,42.17
2023-02-16T08:35:53.805Z,43.50
2023-02-16T08:38:21.900Z,41.13
2023-02-16T08:40:49.693Z,42.17
2023-02-16T08:43:17.473Z,41.28
2023-02-16T08:45:45.389Z,41.33
2023-02-16T08:48:13.042Z,42.17
2023-02-16T08:50:47.030Z,42.42
2023-02-16T08:53:15.364Z,47.17
2023-02-16T08:55:43.036Z,44.03
2023-02-16T08:58:10.762Z,42.13
2023-02-16T09:00:38.971Z,41.15
2023-02-16T09:03:06.978Z,43.22
2023-02-16T09:05:35.294Z,40.08
2023-02-16T09:08:04.590Z,39.03
2023-02-16T09:10:32.892Z,42.05
2023-02-16T09:13:02.461Z,40.72
2023-02-16T09:15:30.253Z,41.40
2023-02-16T09:17:58.006Z,40.85
2023-02-16T09:20:27.411Z,38.35
2023-02-16T09:22:55.163Z,39.92
2023-02-16T09:25:25.561Z,41.72
2023-02-16T09:27:53.288Z,41.10
2023-02-16T09:30:21.167Z,40.13
2023-02-16T09:32:48.902Z,40.97
2023-02-16T09:35:16.914Z,40.78
2023-02-16T09:37:44.980Z,40.63
2023-02-16T09:40:14.723Z,44.22
2023-02-16T09:42:56.395Z,38.47
2023-02-16T09:45:24.581Z,40.70
2023-02-16T09:47:54.393Z,39.97
2023-02-16T09:50:50.225Z,40.88
2023-02-16T09:53:22.431Z,40.50
2023-02-16T09:55:58.103Z,41.07
2023-02-16T09:58:30.471Z,40.13
2023-02-16T10:01:03.679Z,41.03
2023-02-16T10:03:47.382Z,40.15
2023-02-16T10:06:30.999Z,40.85
2023-02-16T10:09:00.784Z,39.90
2023-02-16T10:11:42.659Z,40.65
2023-02-16T10:14:18.516Z,40.23
2023-02-16T10:16:53.110Z,42.83
2023-02-16T10:19:24.555Z,39.97
2023-02-16T10:21:56.078Z,40.85
2023-02-16T10:24:26.274Z,40.15
2023-02-16T10:27:02.322Z,41.03
2023-02-16T10:29:31.483Z,42.45
2023-02-16T10:32:07.515Z,45.30
2023-02-16T10:34:45.460Z,45.53
2023-02-16T10:37:24.523Z,42.10
2023-02-16T10:39:59.275Z,45.28
2023-02-16T10:42:34.371Z,44.15
2023-02-16T10:45:17.975Z,48.10
2023-02-16T10:47:47.161Z,46.13
2023-02-16T10:50:22.119Z,46.35
2023-02-16T10:52:50.764Z,43.13
2023-02-16T10:55:18.477Z,43.43
2023-02-16T10:57:52.314Z,46.70
2023-02-16T11:00:27.818Z,49.00
2023-02-16T16:48:09.962Z,60.92
2023-02-16T16:50:39.843Z,52.08
2023-02-16T16:56:12.747Z,47.10
2023-02-16T16:58:40.857Z,49.67
2023-02-16T17:03:36.155Z,50.53
2023-02-16T17:06:04.280Z,47.25
2023-02-16T17:08:32.186Z,43.28
2023-02-16T17:11:00.094Z,43.35
2023-02-16T17:13:28.021Z,43.85
2023-02-16T17:15:58.557Z,47.53
2023-02-16T17:18:26.293Z,47.22
2023-02-16T17:20:55.354Z,54.13
2023-02-16T17:23:23.772Z,56.27
2023-02-16T17:25:52.023Z,49.55
2023-02-16T17:28:21.326Z,50.35
2023-02-16T17:30:49.018Z,47.67
2023-02-16T17:33:17.288Z,49.05
2023-02-16T17:35:45.075Z,57.92
2023-02-16T17:38:18.414Z,45.45
2023-02-16T17:40:48.221Z,48.75
2023-02-16T17:43:16.535Z,45.35
2023-02-16T17:45:45.080Z,59.95
2023-02-16T17:48:16.926Z,44.63
2023-02-16T17:50:44.667Z,43.15
2023-02-16T17:53:15.019Z,43.90
2023-02-16T17:55:42.898Z,46.40
2023-02-16T17:58:11.334Z,42.90
2023-02-16T18:00:39.379Z,43.60
2023-02-16T18:03:07.459Z,42.67
2023-02-16T18:05:35.382Z,44.83
2023-02-16T18:08:03.181Z,49.70
2023-02-16T18:10:38.576Z,51.03
2023-02-16T18:13:06.539Z,48.80
2023-02-16T18:15:34.950Z,55.72
2023-02-16T18:18:02.630Z,51.13
2023-02-16T18:20:30.345Z,51.55
2023-02-16T18:22:58.044Z,48.85
2023-02-16T18:25:25.844Z,49.17
2023-02-16T18:27:55.026Z,52.87
2023-02-16T18:30:23.054Z,47.72
2023-02-16T18:32:51.098Z,52.83
2023-02-16T18:35:19.189Z,52.17
2023-02-16T18:37:47.415Z,51.70
2023-02-16T18:40:17.793Z,50.85
2023-02-16T18:42:45.849Z,51.83
2023-02-16T18:45:15.246Z,53.05
2023-02-16T18:47:45.296Z,49.75
2023-02-16T18:50:13.487Z,49.15
2023-02-16T18:52:44.950Z,54.45
2023-02-16T18:55:12.856Z,54.78
2023-02-16T18:57:40.533Z,53.73
2023-02-16T19:00:10.062Z,55.05
2023-02-16T19:02:40.894Z,52.85
2023-02-16T19:05:09.955Z,56.20
2023-02-16T19:07:37.653Z,56.97
2023-02-16T19:10:06.390Z,52.25
2023-02-16T19:12:34.072Z,50.33
2023-02-16T19:15:01.892Z,56.40
2023-02-16T19:17:29.549Z,54.58
2023-02-16T19:19:58.570Z,56.78
2023-02-16T19:22:26.296Z,58.30
2023-02-16T19:24:54.034Z,66.03
2023-02-16T19:27:21.719Z,70.30
2023-02-16T19:29:49.495Z,57.60
2023-02-16T19:32:19.224Z,59.53
2023-02-16T19:34:47.049Z,62.00
2023-02-16T19:37:16.219Z,64.95
2023-02-16T19:39:43.971Z,61.47
2023-02-16T19:42:11.705Z,65.28
2023-02-16T19:44:40.012Z,67.53
2023-02-16T19:47:07.665Z,64.20
2023-02-16T19:49:36.591Z,74.13
2023-02-16T19:52:04.477Z,71.82
2023-02-16T19:54:35.778Z,81.57
2023-02-16T19:57:03.813Z,83.88
2023-02-16T19:59:32.561Z,79.75
2023-02-16T20:02:00.464Z,88.15
2023-02-16T20:04:28.363Z,74.25
2023-02-16T20:06:56.503Z,83.53
2023-02-16T20:09:25.459Z,94.47
2023-02-16T20:11:54.747Z,68.85
2023-02-16T20:14:22.396Z,62.25
2023-02-16T20:16:51.754Z,65.50
2023-02-16T20:19:19.461Z,69.85
2023-02-16T20:21:47.180Z,66.00
2023-02-16T20:24:15.712Z,68.95
2023-02-16T20:26:45.522Z,63.50
2023-02-16T20:29:16.210Z,62.40
2023-02-16T20:31:48.267Z,60.90
2023-02-16T20:34:16.317Z,67.80
2023-02-16T20:36:43.980Z,65.15
2023-02-16T20:39:11.789Z,59.83
2023-02-16T20:41:40.948Z,54.30
2023-02-16T20:44:08.754Z,55.28
2023-02-16T20:46:38.933Z,57.03
2023-02-16T20:49:07.787Z,53.22
2023-02-16T20:51:36.053Z,52.53
2023-02-16T20:54:04.709Z,52.70
2023-02-16T20:56:36.270Z,54.15
2023-02-16T20:59:04.529Z,49.13
2023-02-16T21:01:37.084Z,51.90
2023-02-16T21:04:07.960Z,52.33
2023-02-16T21:06:36.438Z,47.08
2023-02-16T21:09:07.131Z,53.27
2023-02-16T21:11:35.382Z,51.05
2023-02-16T21:14:03.321Z,48.30
2023-02-16T21:16:31.335Z,46.95
2023-02-16T21:18:59.052Z,46.72
2023-02-16T21:21:28.128Z,62.47
2023-02-16T21:23:56.163Z,55.07
2023-02-16T21:26:25.323Z,47.00
2023-02-16T21:28:54.417Z,49.10
2023-02-16T21:31:25.781Z,50.13
2023-02-16T21:33:53.805Z,47.50
2023-02-16T21:36:23.744Z,45.10
2023-02-16T21:38:53.118Z,44.87
2023-02-16T21:41:25.102Z,44.55
2023-02-16T21:43:59.229Z,46.95
2023-02-16T21:46:27.424Z,46.25
2023-02-16T21:48:55.199Z,44.90
2023-02-16T21:51:25.239Z,47.07
2023-02-16T21:53:54.854Z,46.25
2023-02-16T21:56:30.131Z,46.70
2023-02-16T21:58:58.524Z,46.90
2023-02-16T22:01:27.684Z,49.03
2023-02-16T22:03:58.682Z,44.50
2023-02-16T22:06:27.795Z,52.67
2023-02-16T22:08:56.916Z,42.60
2023-02-16T22:11:24.635Z,43.50
2023-02-16T22:13:54.848Z,41.78
2023-02-16T22:16:22.951Z,40.65
2023-02-16T22:18:51.049Z,42.95
2023-02-16T22:21:18.790Z,42.90
2023-02-16T22:23:46.519Z,42.28
2023-02-16T22:26:26.446Z,39.55
2023-02-16T22:28:55.024Z,41.03
2023-02-16T22:31:24.332Z,40.97
2023-02-16T22:33:56.157Z,40.47
2023-02-16T22:36:24.068Z,45.25
2023-02-16T22:38:53.000Z,41.53
2023-02-16T22:41:21.106Z,40.45
2023-02-16T22:43:52.930Z,39.00
2023-02-16T22:46:20.693Z,38.45
2023-02-16T22:48:48.684Z,39.05
2023-02-16T22:51:18.282Z,40.78
2023-02-16T22:53:46.118Z,42.63
2023-02-16T22:56:15.333Z,36.85
2023-02-16T22:58:43.050Z,39.05
2023-02-16T23:01:14.596Z,38.60
2023-02-16T23:03:43.119Z,37.22
2023-02-16T23:06:14.979Z,39.90
2023-02-16T23:08:42.967Z,39.05
2023-02-16T23:11:10.685Z,39.85
2023-02-16T23:13:38.608Z,37.88
2023-02-16T23:16:08.150Z,38.10
2023-02-16T23:18:37.406Z,37.78
2023-02-16T23:21:06.959Z,37.70
2023-02-16T23:23:34.744Z,36.38
2023-02-16T23:26:02.742Z,36.83
2023-02-16T23:28:30.508Z,36.85
2023-02-16T23:30:58.657Z,38.10
2023-02-16T23:33:26.418Z,36.65
2023-02-16T23:35:55.915Z,37.67
2023-02-16T23:38:23.889Z,37.45
2023-02-16T23:40:56.884Z,39.42
2023-02-16T23:43:24.744Z,36.75
2023-02-16T23:45:52.506Z,38.05
2023-02-16T23:48:20.258Z,38.42
2023-02-16T23:50:48.006Z,37.83
2023-02-16T23:53:17.040Z,37.00
2023-02-16T23:55:44.850Z,36.70
2023-02-16T23:58:12.528Z,34.63
